Accueil
METAR-TAF:

METAR-TAF

Aéroports :

Great Bend Municipal Airport

Great Bend, Kansas, États-Unis

latitude: 38-21N, longitude: 098-52W, altitude: 575 m

Observation

Le bulletin a été fait il y a 57 minutes, à 01:56 UTC
Vent 7 kt de est/sud-est
Température 24°C
Humidité 61%
Pression 1020 hPa
Visibilité: 16.1 km
Ciel clair

METAR: KGBD 220156Z AUTO 12007KT 10SM CLR 24/16 A3011 RMK AO2 SLP180 T02440156

Heure: 21:53 (02:53 UTC)

Prévision

Le bulletin a été fait il y a 3 heures et 33 minutes, à 23:20 UTC
Prévision valable du 22 à 00 UTC au 22 à 24 UTC
Vent 7 kt de est
Visibilité: 10 km
Nuages épars à une hauteur de 15000 ft

TAF: KGBD 212320Z 2200/2224 08007KT P6SM SCT150

Observations et prévisions météorologiques de plus de 4000 aéroports (messages METAR et TAF).

Les stations disponibles sont représentées par des disques jaunes et rouges sur la carte.

Passer la souris dessus pour voir le nom de la station.

Cliquer dessus pour voir les observations et prévisions météorologiques.

Pour changer de carte: cliquez sur les boutons verts avec une croix noire pour zoomer, sur le bouton vert avec un tiret pour effectuer un zoom arrière, ou sur les flèches vertes pour les cartes adjacentes.


METAR-TAF: